createdAt,value
2018-03-26T00:01:10.293Z,4.30
2018-03-26T00:03:38.387Z,4.30
2018-03-26T00:06:08.957Z,4.30
2018-03-26T00:08:37.086Z,4.20
2018-03-26T00:11:05.265Z,4.20
2018-03-26T00:13:33.434Z,4.20
2018-03-26T00:16:01.723Z,4.20
2018-03-26T00:18:29.883Z,4.20
2018-03-26T00:20:58.061Z,4.20
2018-03-26T00:23:26.235Z,4.10
2018-03-26T00:25:54.517Z,4.10
2018-03-26T00:28:22.988Z,4.10
2018-03-26T00:30:51.671Z,4.10
2018-03-26T00:33:19.811Z,4.10
2018-03-26T00:35:47.916Z,4.10
2018-03-26T00:38:15.993Z,4.00
2018-03-26T00:40:44.169Z,4.00
2018-03-26T00:43:12.336Z,4.00
2018-03-26T00:45:40.510Z,4.00
2018-03-26T00:48:08.591Z,4.00
2018-03-26T00:50:36.757Z,3.90
2018-03-26T00:53:04.929Z,3.90
2018-03-26T00:55:33.213Z,3.80
2018-03-26T00:58:01.387Z,3.80
2018-03-26T01:00:29.557Z,3.80
2018-03-26T01:02:57.722Z,3.80
2018-03-26T01:05:25.899Z,3.80
2018-03-26T01:07:54.790Z,3.80
2018-03-26T01:10:22.960Z,3.80
2018-03-26T01:12:51.235Z,3.80
2018-03-26T01:15:22.083Z,3.70
2018-03-26T01:17:50.361Z,3.70
2018-03-26T01:20:19.241Z,3.70
2018-03-26T01:22:47.416Z,3.70
2018-03-26T01:25:17.123Z,3.70
2018-03-26T01:27:45.408Z,3.70
2018-03-26T01:30:13.573Z,3.70
2018-03-26T01:32:41.743Z,3.70
2018-03-26T01:35:09.919Z,3.70
2018-03-26T01:37:38.093Z,3.70
2018-03-26T01:40:06.244Z,3.70
2018-03-26T01:42:34.438Z,3.70
2018-03-26T01:45:03.333Z,3.70
2018-03-26T01:47:31.501Z,3.60
2018-03-26T01:50:00.289Z,3.60
2018-03-26T01:52:28.578Z,3.60
2018-03-26T01:54:57.461Z,3.60
2018-03-26T01:57:25.743Z,3.60
2018-03-26T01:59:53.905Z,3.60
2018-03-26T02:02:22.192Z,3.60
2018-03-26T02:04:50.354Z,3.60
2018-03-26T02:07:18.535Z,3.50
2018-03-26T02:09:46.706Z,3.50
2018-03-26T02:12:14.875Z,3.50
2018-03-26T02:14:43.163Z,3.50
2018-03-26T02:17:11.438Z,3.50
2018-03-26T02:19:39.603Z,3.50
2018-03-26T02:22:08.698Z,3.50
2018-03-26T02:24:36.871Z,3.50
2018-03-26T02:27:05.157Z,3.50
2018-03-26T02:29:34.342Z,3.40
2018-03-26T02:32:03.233Z,3.40
2018-03-26T02:34:31.409Z,3.40
2018-03-26T02:37:00.092Z,3.40
2018-03-26T02:39:28.267Z,3.40
2018-03-26T02:41:56.553Z,3.40
2018-03-26T02:44:24.920Z,3.40
2018-03-26T02:46:53.104Z,3.40
2018-03-26T02:49:21.269Z,3.40
2018-03-26T02:51:49.441Z,3.30
2018-03-26T02:54:17.618Z,3.30
2018-03-26T02:56:46.618Z,3.30
2018-03-26T02:59:14.907Z,3.30
2018-03-26T03:01:43.886Z,3.30
2018-03-26T03:04:12.060Z,3.30
2018-03-26T03:06:40.227Z,3.30
2018-03-26T03:09:08.395Z,3.30
2018-03-26T03:11:36.571Z,3.30
2018-03-26T03:14:06.283Z,3.30
2018-03-26T03:16:34.457Z,3.30
2018-03-26T03:19:02.743Z,3.30
2018-03-26T03:21:31.618Z,3.30
2018-03-26T03:23:59.790Z,3.20
2018-03-26T03:26:28.080Z,3.20
2018-03-26T03:28:57.059Z,3.20
2018-03-26T03:31:25.302Z,3.20
2018-03-26T03:33:53.513Z,3.20
2018-03-26T03:36:21.797Z,3.20
2018-03-26T03:38:50.678Z,3.10
2018-03-26T03:41:18.852Z,3.10
2018-03-26T03:43:47.022Z,3.10
2018-03-26T03:46:15.198Z,3.10
2018-03-26T03:48:43.586Z,3.10
2018-03-26T03:51:11.752Z,3.00
2018-03-26T03:53:40.035Z,3.00
2018-03-26T03:56:07.994Z,3.00
2018-03-26T03:58:36.165Z,3.00
2018-03-26T04:01:04.454Z,3.00
2018-03-26T04:03:33.343Z,3.00
2018-03-26T04:06:01.619Z,3.00
2018-03-26T04:08:29.894Z,3.00
2018-03-26T04:10:58.171Z,3.00
2018-03-26T04:13:26.336Z,3.00
2018-03-26T04:15:54.621Z,3.00
2018-03-26T04:18:22.782Z,3.00
2018-03-26T04:20:51.058Z,3.00
2018-03-26T04:23:19.231Z,2.90
2018-03-26T04:25:47.444Z,2.90
2018-03-26T04:28:15.582Z,3.00
2018-03-26T04:30:44.685Z,2.90
2018-03-26T04:33:12.846Z,3.00
2018-03-26T04:35:41.025Z,3.00
2018-03-26T04:38:09.926Z,2.90
2018-03-26T04:40:39.018Z,2.90
2018-03-26T04:43:07.294Z,2.90
2018-03-26T04:45:36.287Z,2.90
2018-03-26T04:48:05.074Z,2.90
2018-03-26T04:50:33.239Z,2.90
2018-03-26T04:53:01.410Z,2.90
2018-03-26T04:55:29.583Z,2.90
2018-03-26T04:57:57.761Z,2.90
2018-03-26T05:00:26.044Z,2.90
2018-03-26T05:02:54.092Z,2.90
2018-03-26T05:05:22.276Z,2.90
2018-03-26T05:07:50.450Z,2.90
2018-03-26T05:10:18.526Z,2.90
2018-03-26T05:12:46.592Z,2.90
2018-03-26T05:15:20.475Z,2.90
2018-03-26T05:17:48.571Z,2.90
2018-03-26T05:20:16.750Z,2.90
2018-03-26T05:22:44.957Z,2.90
2018-03-26T05:25:13.205Z,2.90
2018-03-26T05:27:41.368Z,2.90
2018-03-26T05:30:09.655Z,2.90
2018-03-26T05:32:37.817Z,3.00
2018-03-26T05:35:05.894Z,3.00
2018-03-26T05:37:34.174Z,3.00
2018-03-26T05:40:02.451Z,3.10
2018-03-26T05:42:30.729Z,3.10
2018-03-26T05:44:58.892Z,3.20
2018-03-26T05:47:27.177Z,3.20
2018-03-26T05:49:56.161Z,3.30
2018-03-26T05:52:24.444Z,3.30
2018-03-26T05:54:52.721Z,3.30
2018-03-26T05:57:20.888Z,3.40
2018-03-26T05:59:48.953Z,3.50
2018-03-26T06:02:17.128Z,3.50
2018-03-26T06:04:45.306Z,3.60
2018-03-26T06:07:13.373Z,3.70
2018-03-26T06:09:41.443Z,3.80
2018-03-26T06:12:09.613Z,3.90
2018-03-26T06:14:37.791Z,4.00
2018-03-26T06:17:26.448Z,4.20
2018-03-26T06:19:54.618Z,4.20
2018-03-26T06:22:22.904Z,4.30
2018-03-26T06:24:51.308Z,4.40
2018-03-26T06:27:20.243Z,4.50
2018-03-26T06:29:48.540Z,4.60
2018-03-26T06:32:19.375Z,4.70
2018-03-26T06:34:47.766Z,4.80
2018-03-26T06:37:22.390Z,4.90
2018-03-26T06:39:50.665Z,4.90
2018-03-26T06:42:18.831Z,5.00
2018-03-26T06:44:47.017Z,5.10
2018-03-26T06:47:15.896Z,5.20
2018-03-26T06:49:44.897Z,5.30
2018-03-26T06:52:13.061Z,5.40
2018-03-26T06:54:41.128Z,5.40
2018-03-26T06:57:09.201Z,5.50
2018-03-26T06:59:37.381Z,5.60
2018-03-26T07:02:05.547Z,5.80
2018-03-26T07:04:33.618Z,5.90
2018-03-26T07:07:01.791Z,6.00
2018-03-26T07:09:29.971Z,6.10
2018-03-26T07:11:58.141Z,6.20
2018-03-26T07:14:26.315Z,6.30
2018-03-26T07:16:54.596Z,6.40
2018-03-26T07:19:22.763Z,6.50
2018-03-26T07:21:51.665Z,6.60
2018-03-26T07:24:22.386Z,6.70
2018-03-26T07:26:50.559Z,6.90
2018-03-26T07:29:18.846Z,7.00
2018-03-26T07:31:47.012Z,7.10
2018-03-26T07:34:15.194Z,7.20
2018-03-26T07:36:43.358Z,7.40
2018-03-26T07:39:11.644Z,7.50
2018-03-26T07:41:39.807Z,7.60
2018-03-26T07:44:08.599Z,7.80
2018-03-26T07:46:36.769Z,7.90
2018-03-26T07:49:05.053Z,8.00
2018-03-26T07:51:33.330Z,8.10
2018-03-26T07:54:01.495Z,8.30
2018-03-26T07:56:29.779Z,8.40
2018-03-26T07:58:57.940Z,8.50
2018-03-26T08:01:26.119Z,8.60
2018-03-26T08:03:54.287Z,8.70
2018-03-26T08:06:22.573Z,8.80
2018-03-26T08:08:50.851Z,9.00
2018-03-26T08:11:19.729Z,9.30
2018-03-26T08:13:47.800Z,9.30
2018-03-26T08:16:15.975Z,9.50
2018-03-26T08:18:44.151Z,9.60
2018-03-26T08:21:12.436Z,9.80
2018-03-26T08:23:41.534Z,9.90
2018-03-26T08:26:10.410Z,10.20
2018-03-26T08:28:40.118Z,10.40
2018-03-26T08:31:08.372Z,10.30
2018-03-26T08:33:36.473Z,10.50
2018-03-26T08:36:04.753Z,10.70
2018-03-26T08:38:33.634Z,11.00
2018-03-26T08:41:01.923Z,11.00
2018-03-26T08:43:30.901Z,11.30
2018-03-26T08:45:59.904Z,11.50
2018-03-26T08:48:28.181Z,11.40
2018-03-26T08:50:56.116Z,11.60
2018-03-26T08:53:24.201Z,11.80
2018-03-26T08:55:52.225Z,11.90
2018-03-26T08:58:20.270Z,12.10
2018-03-26T09:00:49.112Z,12.30
2018-03-26T09:03:17.091Z,12.30
2018-03-26T09:05:45.069Z,12.50
2018-03-26T09:08:13.066Z,12.60
2018-03-26T09:10:41.760Z,12.90
2018-03-26T09:13:10.620Z,13.00
2018-03-26T09:15:38.649Z,13.00
2018-03-26T09:18:07.046Z,13.10
2018-03-26T09:20:35.065Z,13.20
2018-03-26T09:23:03.880Z,13.50
2018-03-26T09:25:31.900Z,13.50
2018-03-26T09:27:59.841Z,13.60
2018-03-26T09:30:27.767Z,13.80
2018-03-26T09:32:55.711Z,13.90
2018-03-26T09:35:23.693Z,14.10
2018-03-26T09:37:52.468Z,14.30
2018-03-26T09:40:20.425Z,14.30
2018-03-26T09:42:48.402Z,14.40
2018-03-26T09:45:16.346Z,14.60
2018-03-26T09:47:44.333Z,14.80
2018-03-26T09:50:12.334Z,15.00
2018-03-26T09:52:41.168Z,15.30
2018-03-26T09:55:09.260Z,15.30
2018-03-26T09:57:37.274Z,15.50
2018-03-26T10:00:06.300Z,15.60
2018-03-26T10:02:34.303Z,15.80
2018-03-26T10:05:02.402Z,16.00
2018-03-26T10:07:31.127Z,16.60
2018-03-26T10:09:59.054Z,16.50
2018-03-26T10:12:27.761Z,17.00
2018-03-26T10:14:55.691Z,17.00
2018-03-26T10:17:23.674Z,17.30
2018-03-26T10:19:52.406Z,17.60
2018-03-26T10:22:20.451Z,17.50
2018-03-26T10:24:48.356Z,17.80
2018-03-26T10:27:17.260Z,18.00
2018-03-26T10:29:45.194Z,18.40
2018-03-26T10:32:13.110Z,18.70
2018-03-26T10:34:41.042Z,18.90
2018-03-26T10:37:09.046Z,19.10
2018-03-26T10:39:37.085Z,19.20
2018-03-26T10:42:05.023Z,19.40
2018-03-26T10:44:32.948Z,19.60
2018-03-26T10:47:00.859Z,19.90
2018-03-26T10:49:28.853Z,20.20
2018-03-26T10:51:56.763Z,20.50
2018-03-26T10:54:25.506Z,21.10
2018-03-26T10:56:53.525Z,21.00
2018-03-26T10:59:22.376Z,21.50
2018-03-26T11:01:50.317Z,21.40
2018-03-26T11:04:18.328Z,21.60
2018-03-26T11:06:46.238Z,21.70
2018-03-26T11:09:17.345Z,22.00
2018-03-26T11:11:45.270Z,22.30
2018-03-26T11:14:13.311Z,22.50
2018-03-26T11:16:42.016Z,23.00
2018-03-26T11:19:09.942Z,23.00
2018-03-26T11:21:38.046Z,23.20
2018-03-26T11:24:06.038Z,23.40
2018-03-26T11:26:34.003Z,23.60
2018-03-26T11:29:01.925Z,23.70
2018-03-26T11:31:30.682Z,23.70
2018-03-26T11:33:58.645Z,23.70
2018-03-26T11:36:26.682Z,24.00
2018-03-26T11:38:54.586Z,24.00
2018-03-26T11:41:22.525Z,24.10
2018-03-26T11:43:50.465Z,24.20
2018-03-26T11:46:21.315Z,24.30
2018-03-26T11:48:49.266Z,24.30
2018-03-26T11:51:18.082Z,24.70
2018-03-26T11:53:46.101Z,24.70
2018-03-26T11:56:15.522Z,24.80
2018-03-26T11:58:44.248Z,25.20
2018-03-26T12:01:12.400Z,25.20
2018-03-26T12:03:40.434Z,25.30
2018-03-26T12:06:08.384Z,25.50
2018-03-26T12:08:36.380Z,25.60
2018-03-26T12:11:05.267Z,25.70
2018-03-26T12:13:33.194Z,25.70
2018-03-26T12:16:01.169Z,25.90
2018-03-26T12:18:29.298Z,26.10
2018-03-26T12:21:02.088Z,26.50
2018-03-26T13:45:40.575Z,22.40
2018-03-26T13:48:08.778Z,22.30
2018-03-26T13:50:38.090Z,22.10
2018-03-26T13:53:07.126Z,22.00
2018-03-26T13:55:35.374Z,22.00
2018-03-26T13:58:04.448Z,22.20
2018-03-26T14:00:32.800Z,22.20
2018-03-26T14:03:01.002Z,22.30
2018-03-26T14:05:29.258Z,22.40
2018-03-26T14:07:57.488Z,22.50
2018-03-26T14:10:37.591Z,22.50
2018-03-26T14:13:17.835Z,22.40
2018-03-26T14:15:58.008Z,22.30
2018-03-26T14:18:26.417Z,22.10
2018-03-26T14:20:54.740Z,22.00
2018-03-26T14:23:23.040Z,21.80
2018-03-26T14:25:51.353Z,21.70
2018-03-26T14:28:19.659Z,21.50
2018-03-26T14:30:48.055Z,21.40
2018-03-26T14:33:16.355Z,21.20
2018-03-26T14:35:44.735Z,20.90
2018-03-26T14:38:13.797Z,20.70
2018-03-26T14:40:42.053Z,20.70
2018-03-26T14:43:10.399Z,20.60
2018-03-26T14:45:38.683Z,20.60
2018-03-26T14:48:07.760Z,20.40
2018-03-26T14:50:36.771Z,20.20
2018-03-26T14:53:05.766Z,20.10
2018-03-26T14:55:34.071Z,20.10
2018-03-26T14:58:02.380Z,20.10
2018-03-26T15:00:30.706Z,20.00
2018-03-26T15:02:58.931Z,20.10
2018-03-26T15:05:27.195Z,20.20
2018-03-26T15:07:55.467Z,20.30
2018-03-26T15:10:23.780Z,20.50
2018-03-26T15:12:52.824Z,21.20
2018-03-26T15:15:21.112Z,21.20
2018-03-26T15:17:49.347Z,21.60
2018-03-26T15:20:17.689Z,21.90
2018-03-26T15:22:45.948Z,22.10
2018-03-26T15:25:15.033Z,22.20
2018-03-26T15:27:43.325Z,22.20
2018-03-26T15:30:11.760Z,22.00
2018-03-26T15:32:40.086Z,21.70
2018-03-26T15:35:08.442Z,21.30
2018-03-26T15:37:36.647Z,21.00
2018-03-26T15:40:05.054Z,20.70
2018-03-26T15:42:33.296Z,20.60
2018-03-26T15:45:02.182Z,20.50
2018-03-26T15:47:30.462Z,20.40
2018-03-26T15:49:58.795Z,20.40
2018-03-26T15:52:27.988Z,20.30
2018-03-26T15:54:56.211Z,20.40
2018-03-26T15:57:24.511Z,20.50
2018-03-26T15:59:53.699Z,20.90
2018-03-26T16:02:22.800Z,20.90
2018-03-26T16:04:51.902Z,20.80
2018-03-26T16:07:20.990Z,20.60
2018-03-26T16:09:50.107Z,20.40
2018-03-26T16:12:18.364Z,20.40
2018-03-26T16:14:47.413Z,19.70
2018-03-26T16:17:15.696Z,19.70
2018-03-26T16:19:43.916Z,19.30
2018-03-26T16:22:12.177Z,18.90
2018-03-26T16:24:41.199Z,18.20
2018-03-26T16:27:09.566Z,18.20
2018-03-26T16:29:37.868Z,17.90
2018-03-26T16:32:06.144Z,17.70
2018-03-26T16:34:34.518Z,17.50
2018-03-26T16:37:02.827Z,17.20
2018-03-26T16:39:31.825Z,16.90
2018-03-26T16:42:12.432Z,16.90
2018-03-26T16:44:40.788Z,16.70
2018-03-26T16:47:09.111Z,16.50
2018-03-26T16:49:37.473Z,16.40
2018-03-26T16:52:05.861Z,16.20
2018-03-26T16:54:34.142Z,16.10
2018-03-26T16:57:02.507Z,16.00
2018-03-26T16:59:30.751Z,15.90
2018-03-26T17:01:59.974Z,15.60
2018-03-26T17:04:29.694Z,15.40
2018-03-26T17:06:59.408Z,15.30
2018-03-26T17:09:28.297Z,15.30
2018-03-26T17:11:57.172Z,15.20
2018-03-26T17:14:26.897Z,15.00
2018-03-26T17:16:55.495Z,14.90
2018-03-26T17:19:24.365Z,14.80
2018-03-26T17:21:53.872Z,14.60
2018-03-26T17:24:22.749Z,14.60
2018-03-26T17:26:52.458Z,14.40
2018-03-26T17:29:21.458Z,14.30
2018-03-26T17:31:52.398Z,14.10
2018-03-26T17:34:21.287Z,14.10
2018-03-26T17:36:50.890Z,13.90
2018-03-26T17:39:19.785Z,13.90
2018-03-26T17:41:48.684Z,13.80
2018-03-26T17:44:18.485Z,13.60
2018-03-26T17:46:47.488Z,13.60
2018-03-26T17:49:16.368Z,13.60
2018-03-26T17:51:46.189Z,13.40
2018-03-26T17:54:14.965Z,13.40
2018-03-26T17:56:43.771Z,13.30
2018-03-26T17:59:12.961Z,13.20
2018-03-26T18:01:41.282Z,13.10
2018-03-26T18:04:09.646Z,13.10
2018-03-26T18:06:38.271Z,13.00
2018-03-26T18:09:08.107Z,12.90
2018-03-26T18:11:38.047Z,12.80
2018-03-26T18:14:06.359Z,12.80
2018-03-26T18:16:34.654Z,12.80
2018-03-26T18:19:03.772Z,12.60
2018-03-26T18:21:32.072Z,12.60
2018-03-26T18:24:00.364Z,12.50
2018-03-26T18:26:28.742Z,12.50
2018-03-26T18:28:57.799Z,12.30
2018-03-26T18:31:26.188Z,12.30
2018-03-26T18:33:54.788Z,12.30
2018-03-26T18:36:23.108Z,12.20
2018-03-26T18:38:52.144Z,12.10
2018-03-26T18:41:21.551Z,12.10
2018-03-26T18:43:49.894Z,12.10
2018-03-26T18:46:18.956Z,12.00
2018-03-26T18:48:47.315Z,12.00
2018-03-26T18:51:16.620Z,11.90
2018-03-26T18:53:44.915Z,11.90
2018-03-26T18:56:13.218Z,11.90
2018-03-26T18:58:42.239Z,11.70
2018-03-26T19:01:10.600Z,11.70
2018-03-26T19:03:38.878Z,11.70
2018-03-26T19:06:07.178Z,11.70
2018-03-26T19:08:36.322Z,11.60
2018-03-26T19:11:06.001Z,11.60
2018-03-26T19:13:34.363Z,11.60
2018-03-26T19:16:02.727Z,11.60
2018-03-26T19:18:31.032Z,11.50
2018-03-26T19:21:02.221Z,11.50
2018-03-26T19:23:31.465Z,11.50
2018-03-26T19:25:59.790Z,11.40
2018-03-26T19:28:28.922Z,11.30
2018-03-26T19:30:57.260Z,11.30
2018-03-26T19:33:27.151Z,11.20
2018-03-26T19:35:55.524Z,11.20
2018-03-26T19:38:27.584Z,11.20
2018-03-26T19:40:57.094Z,11.20
2018-03-26T19:43:25.471Z,11.10
2018-03-26T19:45:53.823Z,11.10
2018-03-26T19:48:22.125Z,11.10
2018-03-26T19:50:51.420Z,11.10
2018-03-26T19:53:19.735Z,11.10
2018-03-26T19:55:49.795Z,11.10
2018-03-26T19:58:18.303Z,11.10
2018-03-26T20:00:46.568Z,11.10
2018-03-26T20:03:14.851Z,11.10
2018-03-26T20:05:43.162Z,11.00
2018-03-26T20:08:12.203Z,11.00
2018-03-26T20:10:40.488Z,11.00
2018-03-26T20:13:08.845Z,11.00
2018-03-26T20:15:37.127Z,11.00
2018-03-26T20:18:05.512Z,11.00
2018-03-26T20:20:33.782Z,10.90
2018-03-26T20:23:02.245Z,10.90
2018-03-26T20:25:31.745Z,10.90
2018-03-26T20:28:01.557Z,10.80
2018-03-26T20:30:31.058Z,10.80
2018-03-26T20:33:00.667Z,10.80
2018-03-26T20:35:29.085Z,10.80
2018-03-26T20:37:58.646Z,10.80
2018-03-26T20:40:28.336Z,10.70
2018-03-26T20:42:58.991Z,10.80
2018-03-26T20:45:27.986Z,10.70
2018-03-26T20:47:56.772Z,10.70
2018-03-26T20:50:26.375Z,10.80
2018-03-26T20:52:55.170Z,10.70
2018-03-26T20:55:24.876Z,10.70
2018-03-26T20:57:53.664Z,10.70
2018-03-26T21:00:23.287Z,10.80
2018-03-26T21:02:52.687Z,10.70
2018-03-26T21:05:22.284Z,10.70
2018-03-26T21:07:51.783Z,10.70
2018-03-26T21:10:21.379Z,10.70
2018-03-26T21:12:50.190Z,10.70
2018-03-26T21:15:20.601Z,10.70
2018-03-26T21:17:50.315Z,10.70
2018-03-26T21:20:18.994Z,10.70
2018-03-26T21:22:48.620Z,10.80
2018-03-26T21:25:17.293Z,10.70
2018-03-26T21:27:47.025Z,10.70
2018-03-26T21:30:15.901Z,10.70
2018-03-26T21:32:45.348Z,10.70
2018-03-26T21:35:13.533Z,10.70
2018-03-26T21:37:41.706Z,10.80
2018-03-26T21:40:10.548Z,10.80
2018-03-26T21:42:38.664Z,10.80
2018-03-26T21:45:07.770Z,10.80
2018-03-26T21:47:36.764Z,10.80
2018-03-26T21:50:05.142Z,10.80
2018-03-26T21:52:34.134Z,10.80
2018-03-26T21:55:03.117Z,10.80
2018-03-26T21:57:31.138Z,10.80
2018-03-26T21:59:59.162Z,10.80
2018-03-26T22:02:27.967Z,10.90
2018-03-26T22:04:56.681Z,10.90
2018-03-26T22:07:24.729Z,10.80
2018-03-26T22:09:53.430Z,10.90
2018-03-26T22:12:21.420Z,10.90
2018-03-26T22:14:49.514Z,10.90
2018-03-26T22:17:17.522Z,10.90
2018-03-26T22:19:46.231Z,10.80
2018-03-26T22:22:14.204Z,10.90
2018-03-26T22:24:42.143Z,10.80
2018-03-26T22:27:10.978Z,10.80
2018-03-26T22:29:38.947Z,10.80
2018-03-26T22:32:06.933Z,10.80
2018-03-26T22:34:34.896Z,10.80
2018-03-26T22:37:02.880Z,10.70
2018-03-26T22:39:30.807Z,10.70
2018-03-26T22:41:58.747Z,10.70
2018-03-26T22:44:27.510Z,10.70
2018-03-26T22:46:55.432Z,10.60
2018-03-26T22:49:23.442Z,10.60
2018-03-26T22:51:51.430Z,10.60
2018-03-26T22:54:20.203Z,10.60
2018-03-26T22:56:48.127Z,10.60
2018-03-26T22:59:16.080Z,10.60
2018-03-26T23:01:44.062Z,10.60
2018-03-26T23:04:12.074Z,10.60
2018-03-26T23:06:40.066Z,10.60
2018-03-26T23:09:08.773Z,10.50
2018-03-26T23:11:36.838Z,10.50
2018-03-26T23:14:04.799Z,10.50
2018-03-26T23:16:33.514Z,10.40
2018-03-26T23:19:01.539Z,10.40
2018-03-26T23:21:30.331Z,10.40
2018-03-26T23:23:59.029Z,10.40
2018-03-26T23:26:27.728Z,10.40
2018-03-26T23:28:55.701Z,10.40
2018-03-26T23:31:23.654Z,10.40
2018-03-26T23:33:52.415Z,10.30
2018-03-26T23:36:20.389Z,10.30
2018-03-26T23:38:49.141Z,10.30
2018-03-26T23:41:17.066Z,10.30
2018-03-26T23:43:45.795Z,10.30
2018-03-26T23:46:14.620Z,10.30
2018-03-26T23:48:42.782Z,10.20
2018-03-26T23:51:10.967Z,10.30
2018-03-26T23:53:39.243Z,10.20
2018-03-26T23:56:07.410Z,10.20
2018-03-26T23:58:35.586Z,10.20
